createdAt,value
2019-02-25T00:00:53.210Z,4.88
2019-02-25T00:03:23.384Z,4.78
2019-02-25T00:05:51.391Z,4.69
2019-02-25T00:08:20.206Z,4.79
2019-02-25T00:10:48.784Z,4.80
2019-02-25T00:13:16.767Z,4.87
2019-02-25T00:15:45.068Z,4.75
2019-02-25T00:18:13.168Z,4.70
2019-02-25T00:20:41.332Z,4.72
2019-02-25T00:23:09.320Z,4.60
2019-02-25T00:25:37.318Z,4.57
2019-02-25T00:28:05.610Z,4.56
2019-02-25T00:30:33.573Z,4.56
2019-02-25T00:33:01.540Z,4.47
2019-02-25T00:35:29.741Z,4.19
2019-02-25T00:37:57.694Z,4.22
2019-02-25T00:40:27.705Z,4.22
2019-02-25T00:42:55.951Z,4.14
2019-02-25T00:45:23.951Z,4.05
2019-02-25T00:47:51.986Z,4.01
2019-02-25T00:50:20.093Z,3.97
2019-02-25T00:52:47.970Z,3.90
2019-02-25T00:55:16.160Z,3.99
2019-02-25T00:57:45.949Z,3.96
2019-02-25T01:00:14.729Z,3.94
2019-02-25T01:02:42.875Z,4.01
2019-02-25T01:05:10.829Z,4.08
2019-02-25T01:07:38.986Z,4.04
2019-02-25T01:10:08.340Z,4.06
2019-02-25T01:12:37.851Z,4.15
2019-02-25T01:15:06.313Z,4.01
2019-02-25T01:17:34.373Z,3.88
2019-02-25T01:20:02.406Z,4.00
2019-02-25T01:22:30.623Z,3.96
2019-02-25T01:24:58.661Z,4.03
2019-02-25T01:27:26.761Z,4.00
2019-02-25T01:29:54.717Z,3.89
2019-02-25T01:32:23.055Z,3.93
2019-02-25T01:34:51.314Z,3.81
2019-02-25T01:37:19.253Z,3.80
2019-02-25T01:39:47.244Z,3.80
2019-02-25T01:42:17.376Z,3.73
2019-02-25T01:44:45.629Z,3.72
2019-02-25T01:47:15.873Z,3.84
2019-02-25T01:49:45.261Z,3.86
2019-02-25T01:52:15.020Z,3.83
2019-02-25T01:54:44.859Z,3.83
2019-02-25T01:57:13.234Z,3.94
2019-02-25T01:59:41.347Z,4.04
2019-02-25T02:02:09.253Z,3.85
2019-02-25T02:04:37.349Z,3.86
2019-02-25T02:07:05.558Z,3.85
2019-02-25T02:09:34.461Z,3.82
2019-02-25T02:12:02.524Z,3.71
2019-02-25T02:14:30.699Z,3.75
2019-02-25T02:16:58.705Z,3.79
2019-02-25T02:19:26.951Z,3.76
2019-02-25T02:21:55.050Z,3.65
2019-02-25T02:24:23.634Z,3.63
2019-02-25T02:26:51.666Z,3.57
2019-02-25T02:29:19.651Z,3.58
2019-02-25T02:31:47.779Z,3.42
2019-02-25T02:34:17.068Z,3.28
2019-02-25T02:36:45.128Z,3.15
2019-02-25T02:39:14.216Z,3.05
2019-02-25T02:42:20.650Z,2.93
2019-02-25T02:45:10.057Z,2.86
2019-02-25T02:47:52.458Z,2.86
2019-02-25T02:50:23.414Z,2.92
2019-02-25T02:52:54.110Z,3.16
2019-02-25T02:55:22.231Z,3.12
2019-02-25T02:57:50.367Z,3.28
2019-02-25T03:00:18.757Z,3.35
2019-02-25T03:02:46.734Z,3.39
2019-02-25T03:05:16.489Z,3.34
2019-02-25T03:07:44.379Z,3.23
2019-02-25T03:10:14.728Z,3.32
2019-02-25T03:12:43.209Z,3.22
2019-02-25T03:15:14.183Z,3.16
2019-02-25T03:17:42.233Z,3.06
2019-02-25T03:20:10.954Z,3.04
2019-02-25T03:22:39.391Z,3.10
2019-02-25T03:25:09.979Z,3.13
2019-02-25T03:27:38.048Z,3.07
2019-02-25T03:30:10.618Z,3.11
2019-02-25T03:32:38.612Z,3.12
2019-02-25T03:35:06.737Z,3.05
2019-02-25T03:37:34.686Z,3.07
2019-02-25T03:40:03.832Z,3.18
2019-02-25T03:42:31.876Z,3.07
2019-02-25T03:44:59.842Z,2.96
2019-02-25T03:47:28.208Z,3.00
2019-02-25T03:49:56.369Z,2.82
2019-02-25T03:52:24.315Z,2.96
2019-02-25T03:54:52.452Z,2.99
2019-02-25T03:57:20.535Z,2.97
2019-02-25T03:59:48.578Z,3.08
2019-02-25T04:02:16.628Z,3.01
2019-02-25T04:04:44.598Z,2.96
2019-02-25T04:07:12.598Z,3.05
2019-02-25T04:09:40.596Z,2.96
2019-02-25T04:12:08.573Z,2.91
2019-02-25T04:14:36.602Z,2.82
2019-02-25T04:17:04.547Z,2.79
2019-02-25T04:19:32.510Z,2.71
2019-02-25T04:22:00.510Z,2.82
2019-02-25T04:24:28.516Z,2.73
2019-02-25T04:26:56.520Z,2.83
2019-02-25T04:29:24.779Z,2.80
2019-02-25T04:31:54.163Z,2.84
2019-02-25T04:34:22.542Z,2.82
2019-02-25T04:36:50.453Z,2.89
2019-02-25T04:39:18.623Z,2.85
2019-02-25T04:41:46.623Z,2.79
2019-02-25T04:44:14.662Z,2.77
2019-02-25T04:46:42.902Z,2.82
2019-02-25T04:49:10.906Z,2.61
2019-02-25T04:51:39.319Z,2.57
2019-02-25T04:54:07.315Z,2.50
2019-02-25T04:56:36.667Z,2.62
2019-02-25T04:59:04.664Z,2.71
2019-02-25T05:01:33.227Z,2.59
2019-02-25T05:04:01.597Z,2.49
2019-02-25T05:06:29.833Z,2.42
2019-02-25T05:08:57.876Z,2.33
2019-02-25T05:11:30.455Z,2.27
2019-02-25T05:13:58.858Z,2.24
2019-02-25T05:16:26.959Z,2.27
2019-02-25T05:18:54.962Z,2.49
2019-02-25T05:21:22.980Z,2.68
2019-02-25T05:23:51.043Z,2.60
2019-02-25T05:26:37.101Z,2.63
2019-02-25T05:29:05.072Z,2.73
2019-02-25T05:31:33.041Z,2.89
2019-02-25T05:34:01.041Z,2.93
2019-02-25T05:36:29.037Z,2.96
2019-02-25T05:38:58.733Z,2.86
2019-02-25T05:41:27.980Z,2.79
2019-02-25T05:43:55.982Z,2.77
2019-02-25T05:46:23.987Z,2.68
2019-02-25T05:48:52.335Z,2.73
2019-02-25T05:51:21.465Z,2.59
2019-02-25T05:53:49.474Z,2.52
2019-02-25T05:56:17.881Z,2.37
2019-02-25T05:58:47.699Z,2.30
2019-02-25T06:01:15.692Z,2.31
2019-02-25T06:03:43.715Z,2.35
2019-02-25T06:06:11.742Z,2.42
2019-02-25T06:08:39.701Z,2.42
2019-02-25T06:11:08.057Z,2.33
2019-02-25T06:13:36.442Z,2.29
2019-02-25T06:16:04.463Z,2.28
2019-02-25T06:18:32.728Z,2.22
2019-02-25T06:21:00.758Z,2.21
2019-02-25T06:23:28.731Z,2.25
2019-02-25T06:25:57.013Z,2.45
2019-02-25T06:28:25.002Z,2.48
2019-02-25T06:30:55.934Z,2.47
2019-02-25T06:33:24.185Z,2.43
2019-02-25T06:35:54.280Z,2.42
2019-02-25T06:38:22.333Z,2.42
2019-02-25T06:40:50.310Z,2.37
2019-02-25T06:43:18.791Z,2.50
2019-02-25T06:45:46.724Z,2.37
2019-02-25T06:48:16.151Z,2.49
2019-02-25T06:50:44.243Z,2.88
2019-02-25T06:53:12.233Z,3.18
2019-02-25T06:55:40.202Z,3.25
2019-02-25T06:58:08.246Z,3.40
2019-02-25T07:00:36.216Z,3.50
2019-02-25T07:03:04.754Z,3.55
2019-02-25T07:05:55.302Z,3.48
2019-02-25T07:08:52.050Z,3.82
2019-02-25T07:11:38.519Z,3.83
2019-02-25T07:14:28.924Z,4.00
2019-02-25T07:17:16.476Z,4.12
2019-02-25T07:20:02.590Z,4.18
2019-02-25T07:22:47.686Z,4.25
2019-02-25T07:25:34.503Z,4.31
2019-02-25T07:28:28.918Z,4.29
2019-02-25T07:31:09.183Z,4.50
2019-02-25T07:34:01.190Z,4.74
2019-02-25T07:36:46.290Z,4.90
2019-02-25T07:39:39.231Z,4.78
2019-02-25T07:42:25.521Z,4.93
2019-02-25T07:45:00.148Z,5.31
2019-02-25T07:47:42.865Z,5.45
2019-02-25T07:50:33.473Z,5.29
2019-02-25T07:53:11.453Z,5.27
2019-02-25T07:56:01.945Z,5.38
2019-02-25T07:58:38.037Z,5.63
2019-02-25T08:01:31.985Z,5.79
2019-02-25T08:04:11.106Z,5.75
2019-02-25T08:06:52.024Z,5.96
2019-02-25T08:09:50.440Z,6.04
2019-02-25T08:12:31.300Z,6.05
2019-02-25T08:15:15.011Z,6.21
2019-02-25T08:18:17.933Z,6.34
2019-02-25T08:21:08.267Z,6.34
2019-02-25T08:23:48.317Z,6.46
2019-02-25T08:26:38.963Z,6.74
2019-02-25T08:29:17.714Z,6.60
2019-02-25T08:32:05.620Z,6.79
2019-02-25T08:34:53.270Z,6.96
2019-02-25T08:38:16.341Z,7.31
2019-02-25T08:41:29.365Z,7.30
2019-02-25T08:44:26.282Z,7.56
2019-02-25T08:47:19.939Z,7.60
2019-02-25T08:50:07.702Z,7.67
2019-02-25T08:52:35.684Z,7.95
2019-02-25T08:55:05.948Z,8.12
2019-02-25T08:57:34.214Z,8.17
2019-02-25T09:00:03.076Z,8.16
2019-02-25T09:02:31.161Z,7.88
2019-02-25T09:05:00.380Z,7.87
2019-02-25T09:07:28.404Z,8.03
2019-02-25T09:09:56.373Z,8.39
2019-02-25T09:12:24.353Z,8.60
2019-02-25T09:14:52.381Z,8.81
2019-02-25T09:17:20.356Z,8.77
2019-02-25T09:19:48.676Z,8.92
2019-02-25T09:22:17.855Z,9.05
2019-02-25T09:24:45.856Z,9.33
2019-02-25T09:27:13.968Z,9.16
2019-02-25T09:29:42.377Z,9.25
2019-02-25T09:32:10.726Z,9.42
2019-02-25T09:34:38.944Z,9.56
2019-02-25T09:37:06.917Z,9.86
2019-02-25T09:39:34.855Z,9.92
2019-02-25T09:42:04.788Z,10.01
2019-02-25T09:44:32.676Z,10.11
2019-02-25T09:47:00.966Z,10.08
2019-02-25T09:49:28.953Z,9.98
2019-02-25T09:51:57.197Z,10.18
2019-02-25T09:54:25.183Z,10.51
2019-02-25T09:56:54.312Z,10.66
2019-02-25T09:59:22.583Z,10.69
2019-02-25T10:01:50.588Z,10.96
2019-02-25T10:04:18.661Z,11.06
2019-02-25T10:06:46.713Z,11.04
2019-02-25T10:09:15.076Z,11.00
2019-02-25T10:11:43.175Z,11.19
2019-02-25T10:14:11.230Z,11.25
2019-02-25T10:16:39.353Z,11.53
2019-02-25T10:19:07.329Z,11.67
2019-02-25T10:21:35.756Z,11.78
2019-02-25T10:24:03.856Z,11.85
2019-02-25T10:26:31.912Z,11.62
2019-02-25T10:29:00.033Z,11.97
2019-02-25T10:31:28.134Z,12.19
2019-02-25T10:33:57.531Z,12.33
2019-02-25T10:36:25.491Z,12.31
2019-02-25T10:38:53.494Z,12.24
2019-02-25T10:41:23.213Z,12.50
2019-02-25T10:43:51.432Z,12.60
2019-02-25T10:46:19.769Z,12.73
2019-02-25T10:48:49.780Z,12.72
2019-02-25T10:51:17.963Z,13.29
2019-02-25T10:53:47.801Z,13.23
2019-02-25T10:56:40.863Z,13.43
2019-02-25T10:59:09.337Z,13.32
2019-02-25T11:01:39.147Z,14.04
2019-02-25T11:04:09.011Z,14.16
2019-02-25T11:06:37.657Z,14.00
2019-02-25T11:09:44.426Z,14.22
2019-02-25T11:12:14.504Z,14.50
2019-02-25T11:14:43.431Z,14.52
2019-02-25T11:17:13.775Z,14.18
2019-02-25T11:19:41.716Z,14.01
2019-02-25T11:22:11.937Z,14.22
2019-02-25T11:24:39.919Z,14.50
2019-02-25T11:27:07.959Z,14.64
2019-02-25T11:29:37.875Z,14.60
2019-02-25T11:32:05.782Z,15.05
2019-02-25T11:34:35.586Z,15.18
2019-02-25T11:37:04.458Z,15.63
2019-02-25T11:39:33.180Z,15.67
2019-02-25T11:42:03.392Z,15.51
2019-02-25T11:44:32.389Z,15.66
2019-02-25T11:47:00.374Z,15.74
2019-02-25T11:49:28.385Z,15.58
2019-02-25T11:51:57.037Z,16.05
2019-02-25T11:54:24.999Z,16.30
2019-02-25T11:56:53.144Z,16.39
2019-02-25T11:59:21.111Z,16.17
2019-02-25T12:01:49.369Z,16.57
2019-02-25T12:04:17.386Z,16.95
2019-02-25T12:06:45.785Z,17.06
2019-02-25T12:09:13.824Z,16.91
2019-02-25T12:11:41.865Z,16.57
2019-02-25T12:14:09.893Z,16.96
2019-02-25T12:16:38.332Z,16.89
2019-02-25T12:19:06.219Z,16.90
2019-02-25T12:21:34.275Z,17.11
2019-02-25T12:24:02.207Z,17.04
2019-02-25T12:26:30.214Z,17.19
2019-02-25T12:28:59.285Z,16.92
2019-02-25T12:31:28.633Z,16.96
2019-02-25T12:33:56.987Z,17.62
2019-02-25T12:36:25.009Z,17.38
2019-02-25T12:38:54.765Z,17.73
2019-02-25T12:41:24.479Z,17.75
2019-02-25T12:43:52.509Z,17.71
2019-02-25T12:46:20.552Z,17.69
2019-02-25T12:48:48.857Z,17.81
2019-02-25T12:51:16.930Z,17.88
2019-02-25T12:53:47.192Z,17.87
2019-02-25T12:56:18.202Z,18.02
2019-02-25T12:58:46.383Z,18.15
2019-02-25T13:01:14.476Z,18.53
2019-02-25T13:03:42.514Z,18.69
2019-02-25T13:06:11.231Z,18.37
2019-02-25T13:09:00.877Z,18.66
2019-02-25T13:11:29.515Z,18.75
2019-02-25T13:14:01.011Z,18.76
2019-02-25T13:16:29.619Z,19.11
2019-02-25T13:18:57.704Z,19.24
2019-02-25T13:21:25.785Z,19.25
2019-02-25T13:23:54.695Z,19.47
2019-02-25T13:26:23.218Z,20.05
2019-02-25T13:28:52.551Z,20.73
2019-02-25T13:31:21.193Z,21.51
2019-02-25T13:33:49.308Z,22.74
2019-02-25T13:36:17.276Z,24.10
2019-02-25T13:38:45.254Z,25.44
2019-02-25T13:41:13.355Z,25.98
2019-02-25T13:43:41.458Z,26.67
2019-02-25T13:46:09.507Z,26.30
2019-02-25T13:48:38.154Z,27.78
2019-02-25T13:51:06.209Z,26.50
2019-02-25T13:53:34.432Z,28.09
2019-02-25T13:56:02.841Z,27.40
2019-02-25T13:58:31.000Z,29.87
2019-02-25T14:00:59.107Z,31.91
2019-02-25T14:03:27.673Z,31.24
2019-02-25T14:05:55.689Z,32.18
2019-02-25T14:08:23.815Z,31.36
2019-02-25T14:10:51.829Z,31.96
2019-02-25T14:13:19.744Z,33.21
2019-02-25T14:15:47.751Z,32.61
2019-02-25T14:18:16.034Z,32.30
2019-02-25T14:20:44.337Z,33.85
2019-02-25T14:23:12.520Z,34.42
2019-02-25T14:25:42.728Z,33.24
2019-02-25T14:28:10.792Z,33.79
2019-02-25T14:30:40.132Z,32.61
2019-02-25T14:33:08.311Z,32.86
2019-02-25T14:35:37.821Z,33.91
2019-02-25T14:38:10.082Z,34.48
2019-02-25T14:40:39.437Z,35.78
2019-02-25T14:43:10.594Z,35.22
2019-02-25T14:45:41.487Z,34.50
2019-02-25T14:48:08.275Z,33.76
2019-02-25T14:50:37.397Z,35.20
2019-02-25T14:53:08.463Z,32.97
2019-02-25T14:55:36.392Z,34.35
2019-02-25T14:58:06.862Z,34.96
2019-02-25T15:00:38.027Z,33.53
2019-02-25T15:03:06.998Z,32.80
2019-02-25T15:05:35.569Z,31.27
2019-02-25T15:08:03.871Z,33.32
2019-02-25T15:10:33.830Z,33.21
2019-02-25T15:13:03.959Z,33.10
2019-02-25T15:15:32.195Z,32.13
2019-02-25T15:18:00.458Z,29.90
2019-02-25T15:20:29.047Z,32.71
2019-02-25T15:22:57.933Z,34.15
2019-02-25T15:25:31.219Z,33.50
2019-02-25T15:27:58.063Z,33.05
2019-02-25T15:30:28.292Z,31.08
2019-02-25T15:33:00.081Z,32.54
2019-02-25T15:35:31.450Z,32.66
2019-02-25T15:38:00.470Z,31.96
2019-02-25T15:40:29.104Z,31.64
2019-02-25T15:43:10.460Z,30.27
2019-02-25T15:45:39.921Z,29.32
2019-02-25T15:48:13.119Z,29.97
2019-02-25T15:50:44.110Z,29.67
2019-02-25T15:53:12.381Z,29.52
2019-02-25T15:55:42.731Z,27.29
2019-02-25T15:58:11.129Z,26.32
2019-02-25T16:00:39.206Z,27.53
2019-02-25T16:03:09.101Z,27.52
2019-02-25T16:05:38.785Z,28.06
2019-02-25T16:08:07.012Z,27.63
2019-02-25T16:10:35.662Z,26.88
2019-02-25T16:13:08.224Z,25.39
2019-02-25T16:15:34.195Z,23.42
2019-02-25T16:18:02.608Z,22.57
2019-02-25T16:20:32.539Z,21.66
2019-02-25T16:23:02.862Z,21.78
2019-02-25T16:25:32.219Z,21.31
2019-02-25T16:28:00.937Z,20.72
2019-02-25T16:30:30.729Z,20.39
2019-02-25T16:33:00.095Z,19.15
2019-02-25T16:35:29.183Z,19.38
2019-02-25T16:37:57.625Z,19.50
2019-02-25T16:40:29.178Z,19.24
2019-02-25T16:42:59.804Z,18.66
2019-02-25T16:45:34.550Z,18.42
2019-02-25T16:47:58.719Z,18.35
2019-02-25T16:50:27.107Z,17.76
2019-02-25T16:52:55.999Z,17.26
2019-02-25T16:55:26.983Z,17.25
2019-02-25T16:57:54.138Z,16.84
2019-02-25T17:00:25.173Z,16.64
2019-02-25T17:02:52.581Z,16.35
2019-02-25T17:05:21.363Z,15.99
2019-02-25T17:07:49.625Z,15.89
2019-02-25T17:10:19.199Z,15.80
2019-02-25T17:12:49.931Z,15.51
2019-02-25T17:15:19.364Z,15.23
2019-02-25T17:17:47.588Z,15.00
2019-02-25T17:20:16.286Z,15.00
2019-02-25T17:22:44.936Z,14.87
2019-02-25T17:25:13.924Z,14.56
2019-02-25T17:27:42.071Z,14.35
2019-02-25T17:30:17.451Z,14.31
2019-02-25T17:32:46.671Z,14.17
2019-02-25T17:35:21.401Z,14.14
2019-02-25T17:37:50.137Z,14.12
2019-02-25T17:40:19.340Z,13.97
2019-02-25T17:42:49.302Z,13.82
2019-02-25T17:45:18.882Z,13.82
2019-02-25T17:47:48.724Z,13.66
2019-02-25T17:50:18.154Z,13.53
2019-02-25T17:52:46.882Z,13.53
2019-02-25T17:55:19.417Z,13.40
2019-02-25T17:57:47.496Z,13.46
2019-02-25T18:00:20.267Z,13.48
2019-02-25T18:02:48.454Z,13.43
2019-02-25T18:05:18.544Z,13.36
2019-02-25T18:07:48.552Z,13.16
2019-02-25T18:10:18.092Z,13.01
2019-02-25T18:12:46.123Z,12.78
2019-02-25T18:15:16.808Z,12.61
2019-02-25T18:17:46.762Z,12.57
2019-02-25T18:20:17.218Z,12.42
2019-02-25T18:22:45.654Z,12.23
2019-02-25T18:25:14.272Z,12.14
2019-02-25T18:27:44.001Z,12.09
2019-02-25T18:30:16.390Z,12.03
2019-02-25T18:32:44.872Z,12.02
2019-02-25T18:35:14.430Z,11.93
2019-02-25T18:37:43.534Z,11.84
2019-02-25T18:40:13.973Z,11.82
2019-02-25T18:42:43.234Z,11.78
2019-02-25T18:45:13.665Z,11.77
2019-02-25T18:47:43.874Z,11.70
2019-02-25T18:50:17.270Z,11.64
2019-02-25T18:52:44.843Z,11.54
2019-02-25T18:55:14.286Z,11.55
2019-02-25T18:57:43.835Z,11.50
2019-02-25T19:00:22.217Z,11.35
2019-02-25T19:02:51.844Z,11.41
2019-02-25T19:05:22.922Z,11.30
2019-02-25T19:07:53.214Z,11.41
2019-02-25T19:10:22.708Z,11.36
2019-02-25T19:12:51.585Z,11.45
2019-02-25T19:15:20.422Z,11.41
2019-02-25T19:17:50.133Z,11.23
2019-02-25T19:20:19.121Z,11.09
2019-02-25T19:22:48.455Z,10.91
2019-02-25T19:25:18.254Z,10.95
2019-02-25T19:27:53.937Z,10.93
2019-02-25T19:30:24.534Z,10.78
2019-02-25T19:32:53.001Z,10.72
2019-02-25T19:35:21.910Z,10.97
2019-02-25T19:37:51.444Z,11.03
2019-02-25T19:40:21.811Z,11.10
2019-02-25T19:42:51.589Z,11.24
2019-02-25T19:45:20.394Z,11.26
2019-02-25T19:47:48.623Z,11.33
2019-02-25T19:50:17.435Z,11.20
2019-02-25T19:52:46.651Z,11.05
2019-02-25T19:55:17.628Z,10.86
2019-02-25T19:57:45.833Z,10.83
2019-02-25T20:00:22.021Z,10.71
2019-02-25T20:02:49.626Z,10.53
2019-02-25T20:05:19.749Z,10.41
2019-02-25T20:07:48.871Z,10.20
2019-02-25T20:10:17.067Z,10.21
2019-02-25T20:12:45.233Z,10.18
2019-02-25T20:15:16.412Z,10.06
2019-02-25T20:17:48.846Z,9.92
2019-02-25T20:20:17.581Z,9.87
2019-02-25T20:22:45.818Z,9.78
2019-02-25T20:25:16.287Z,9.62
2019-02-25T20:27:44.339Z,9.63
2019-02-25T20:30:14.208Z,9.77
2019-02-25T20:32:42.904Z,9.60
2019-02-25T20:35:14.017Z,9.52
2019-02-25T20:37:43.280Z,9.48
2019-02-25T20:40:11.503Z,9.58
2019-02-25T20:42:39.650Z,9.61
2019-02-25T20:45:12.159Z,9.64
2019-02-25T20:47:40.591Z,9.55
2019-02-25T20:50:14.659Z,9.44
2019-02-25T20:52:44.574Z,9.31
2019-02-25T20:55:13.341Z,9.33
2019-02-25T20:57:41.703Z,9.25
2019-02-25T21:00:17.608Z,9.17
2019-02-25T21:02:45.857Z,9.07
2019-02-25T21:05:14.754Z,8.94
2019-02-25T21:07:45.635Z,8.94
2019-02-25T21:10:15.124Z,8.93
2019-02-25T21:12:44.009Z,8.94
2019-02-25T21:15:13.899Z,8.93
2019-02-25T21:17:42.304Z,8.85
2019-02-25T21:20:12.016Z,8.72
2019-02-25T21:22:40.391Z,8.70
2019-02-25T21:25:08.689Z,8.69
2019-02-25T21:27:39.042Z,8.73
2019-02-25T21:30:11.257Z,8.77
2019-02-25T21:32:43.226Z,8.74
2019-02-25T21:35:11.607Z,8.61
2019-02-25T21:37:43.365Z,8.57
2019-02-25T21:40:12.977Z,8.68
2019-02-25T21:42:43.778Z,8.73
2019-02-25T21:45:16.026Z,8.72
2019-02-25T21:47:43.186Z,8.61
2019-02-25T21:50:12.517Z,8.80
2019-02-25T21:52:41.738Z,8.61
2019-02-25T21:55:11.728Z,8.56
2019-02-25T21:57:39.958Z,8.52
2019-02-25T22:00:11.570Z,8.39
2019-02-25T22:02:41.414Z,8.24
2019-02-25T22:05:13.705Z,8.24
2019-02-25T22:07:40.619Z,8.27
2019-02-25T22:10:10.225Z,8.16
2019-02-25T22:12:40.023Z,8.01
2019-02-25T22:15:10.830Z,7.99
2019-02-25T22:17:40.699Z,7.99
2019-02-25T22:20:12.247Z,7.92
2019-02-25T22:22:41.044Z,7.98
2019-02-25T22:25:13.509Z,7.92
2019-02-25T22:27:41.753Z,7.88
2019-02-25T22:30:14.013Z,7.81
2019-02-25T22:32:43.169Z,7.82
2019-02-25T22:35:14.351Z,7.81
2019-02-25T22:37:44.543Z,7.71
2019-02-25T22:40:12.829Z,7.81
2019-02-25T22:42:42.043Z,7.75
2019-02-25T22:45:14.223Z,7.70
2019-02-25T22:47:42.767Z,7.77
2019-02-25T22:50:13.442Z,7.77
2019-02-25T22:52:41.225Z,7.68
2019-02-25T22:55:10.097Z,7.70
2019-02-25T22:57:40.958Z,7.75
2019-02-25T23:00:30.360Z,7.85
2019-02-25T23:03:02.436Z,7.76
2019-02-25T23:05:30.856Z,7.76
2019-02-25T23:07:58.878Z,7.76
2019-02-25T23:10:26.961Z,7.77
2019-02-25T23:12:55.261Z,7.86
2019-02-25T23:15:26.970Z,7.84
2019-02-25T23:17:53.495Z,7.65
2019-02-25T23:20:23.059Z,7.42
2019-02-25T23:22:53.012Z,7.54
2019-02-25T23:25:22.389Z,7.53
2019-02-25T23:27:53.026Z,7.48
2019-02-25T23:30:21.291Z,7.28
2019-02-25T23:32:54.918Z,7.13
2019-02-25T23:35:25.427Z,6.98
2019-02-25T23:37:56.191Z,7.00
2019-02-25T23:40:23.991Z,7.06
2019-02-25T23:42:52.014Z,6.97
2019-02-25T23:45:23.085Z,6.96
2019-02-25T23:47:55.239Z,6.91
2019-02-25T23:50:20.559Z,6.98
2019-02-25T23:52:48.849Z,6.93
2019-02-25T23:55:19.107Z,6.88
2019-02-25T23:57:47.036Z,6.80
